Time;durP1;ratioP1;P1;durP2;ratioP2;P2;SDS_P1;SDS_P2;PMS_P1;PMS_P2;Temp;Humidity;BMP_temperature;BMP_pressure;BME280_temperature;BME280_humidity;BME280_pressure;Samples;Min_cycle;Max_cycle;Signal;HPM_P1;HPM_P2
2022/01/31 00:01:04;;;;;;;15.73;6.80;;;3.50;96.90;;;;;;5072077;28;20493;-51
2022/01/31 00:03:33;;;;;;;23.53;8.80;;;3.50;97.00;;;;;;5068178;28;21783;-51
2022/01/31 00:06:01;;;;;;;25.27;7.57;;;3.60;97.20;;;;;;5056049;28;20466;-51
2022/01/31 00:08:29;;;;;;;25.87;8.20;;;3.50;96.80;;;;;;5049730;28;20673;-51
2022/01/31 00:10:56;;;;;;;24.57;8.97;;;3.50;97.10;;;;;;5047151;28;20485;-51
2022/01/31 00:13:27;;;;;;;14.70;8.03;;;3.40;97.20;;;;;;5047841;28;20487;-52
2022/01/31 00:15:56;;;;;;;28.73;8.43;;;3.40;97.30;;;;;;5054665;28;20517;-51
2022/01/31 00:18:23;;;;;;;14.77;7.27;;;3.50;97.50;;;;;;5062163;28;20895;-51
2022/01/31 00:20:50;;;;;;;19.83;7.73;;;3.60;97.30;;;;;;5064366;28;21223;-51
2022/01/31 00:23:16;;;;;;;24.80;8.27;;;3.70;97.10;;;;;;5062522;28;20513;-52
2022/01/31 00:25:45;;;;;;;35.83;8.67;;;3.80;96.80;;;;;;5063280;28;20536;-52
2022/01/31 00:28:11;;;;;;;26.57;8.53;;;3.80;96.90;;;;;;5055975;28;20748;-49
2022/01/31 00:30:38;;;;;;;21.37;7.10;;;3.80;96.90;;;;;;5053734;28;20471;-50
2022/01/31 00:33:05;;;;;;;20.13;8.63;;;3.80;96.80;;;;;;5048315;28;20604;-50
2022/01/31 00:35:32;;;;;;;26.47;8.07;;;3.80;97.00;;;;;;5057626;28;20471;-51
2022/01/31 00:37:58;;;;;;;25.97;7.93;;;3.80;96.90;;;;;;5055337;28;20746;-51
2022/01/31 00:40:25;;;;;;;17.53;8.60;;;3.70;96.90;;;;;;5046743;28;20505;-51
2022/01/31 00:42:53;;;;;;;19.27;9.00;;;3.50;97.20;;;;;;5047891;28;21027;-51
2022/01/31 00:45:25;;;;;;;18.80;8.80;;;3.40;97.40;;;;;;5049303;28;20509;-51
2022/01/31 00:48:00;;;;;;;13.90;8.43;;;3.40;97.70;;;;;;5050157;28;21013;-51
2022/01/31 00:50:27;;;;;;;16.57;7.70;;;3.40;97.80;;;;;;5061141;28;21547;-51
2022/01/31 00:52:54;;;;;;;19.57;8.40;;;3.40;98.00;;;;;;5067740;28;21068;-51
2022/01/31 00:55:21;;;;;;;25.07;9.30;;;3.50;97.80;;;;;;5063808;28;20505;-51
2022/01/31 00:57:48;;;;;;;22.70;7.00;;;3.60;97.80;;;;;;5061521;28;21307;-51
2022/01/31 01:00:17;;;;;;;21.27;8.60;;;3.50;97.70;;;;;;5055765;28;20494;-50
2022/01/31 01:02:44;;;;;;;28.43;10.80;;;3.40;97.90;;;;;;5058662;28;21050;-50
2022/01/31 01:05:11;;;;;;;13.53;7.70;;;3.40;98.00;;;;;;5065786;28;20573;-50
2022/01/31 01:07:38;;;;;;;11.53;6.53;;;3.40;98.10;;;;;;5058165;28;20474;-51
2022/01/31 01:10:06;;;;;;;24.53;10.50;;;3.40;98.10;;;;;;5063578;28;20586;-50
2022/01/31 01:12:32;;;;;;;14.80;7.60;;;3.40;98.30;;;;;;5050850;28;20528;-50
2022/01/31 01:14:59;;;;;;;22.73;8.70;;;3.40;98.30;;;;;;5058010;28;20541;-50
2022/01/31 01:17:27;;;;;;;21.33;10.83;;;3.40;98.20;;;;;;5057030;28;20537;-50
2022/01/31 01:19:54;;;;;;;12.60;6.27;;;3.50;98.30;;;;;;5050391;28;20484;-51
2022/01/31 01:22:20;;;;;;;27.47;9.43;;;3.50;98.20;;;;;;5069749;28;20888;-51
2022/01/31 01:24:48;;;;;;;22.90;10.27;;;3.40;98.50;;;;;;5058615;28;20934;-51
2022/01/31 01:27:18;;;;;;;21.23;8.60;;;3.50;98.50;;;;;;5066863;28;20483;-50
2022/01/31 01:29:46;;;;;;;28.47;9.83;;;3.40;98.50;;;;;;5082309;28;20469;-49
2022/01/31 01:32:12;;;;;;;46.50;9.90;;;3.30;98.80;;;;;;5080809;28;20480;-50
2022/01/31 01:34:40;;;;;;;10.20;6.30;;;3.30;98.70;;;;;;5081185;28;20467;-50
2022/01/31 01:37:07;;;;;;;30.57;11.20;;;3.30;98.70;;;;;;5059923;28;21091;-50
2022/01/31 01:39:34;;;;;;;38.13;10.67;;;3.20;98.90;;;;;;5074689;28;20845;-51
2022/01/31 01:42:01;;;;;;;17.13;6.57;;;3.20;98.90;;;;;;5082601;28;20546;-51
2022/01/31 01:44:42;;;;;;;18.80;8.03;;;3.30;99.00;;;;;;5082161;28;20487;-51
2022/01/31 01:47:10;;;;;;;30.33;11.57;;;3.30;99.00;;;;;;5069977;28;20475;-50
2022/01/31 01:49:36;;;;;;;29.07;12.07;;;3.40;99.00;;;;;;5069912;28;20457;-51
2022/01/31 01:52:05;;;;;;;20.70;7.77;;;3.40;98.90;;;;;;5079042;28;20482;-50
2022/01/31 01:54:33;;;;;;;23.50;9.03;;;3.30;99.00;;;;;;5092329;28;20474;-51
2022/01/31 01:57:02;;;;;;;29.27;14.30;;;3.30;99.20;;;;;;5076098;28;20741;-52
2022/01/31 01:59:29;;;;;;;7.80;3.67;;;3.30;99.40;;;;;;5096391;28;20484;-51
2022/01/31 02:01:56;;;;;;;5.33;4.30;;;3.30;99.30;;;;;;5101340;28;20485;-50
2022/01/31 02:04:22;;;;;;;21.07;11.23;;;3.40;99.30;;;;;;5089921;28;20482;-51
2022/01/31 02:06:49;;;;;;;29.33;12.13;;;3.50;99.10;;;;;;5092752;28;20555;-52
2022/01/31 02:09:22;;;;;;;10.20;5.67;;;3.50;99.10;;;;;;5097423;28;21079;-51
2022/01/31 02:11:48;;;;;;;13.07;8.20;;;3.50;98.90;;;;;;5100871;28;20490;-51
2022/01/31 02:14:15;;;;;;;18.27;8.47;;;3.70;98.90;;;;;;5097527;28;20478;-50
2022/01/31 02:16:42;;;;;;;31.13;10.97;;;3.70;98.70;;;;;;5095797;28;20845;-51
2022/01/31 02:19:14;;;;;;;9.23;4.13;;;3.80;98.80;;;;;;5050621;28;20977;-50
2022/01/31 02:21:42;;;;;;;8.70;2.37;;;3.90;98.50;;;;;;5058071;28;20900;-50
2022/01/31 02:24:09;;;;;;;24.30;12.03;;;3.80;98.40;;;;;;5082323;28;20477;-51
2022/01/31 02:26:35;;;;;;;24.30;11.63;;;3.70;98.60;;;;;;5078836;28;20479;-51
2022/01/31 02:29:02;;;;;;;15.67;7.70;;;3.70;98.70;;;;;;5072874;28;20898;-49
2022/01/31 02:31:29;;;;;;;24.97;11.27;;;3.70;98.80;;;;;;5080371;28;20880;-49
2022/01/31 02:33:56;;;;;;;21.57;5.40;;;3.70;98.90;;;;;;5081632;28;20478;-49
2022/01/31 02:36:23;;;;;;;35.20;12.20;;;3.80;98.90;;;;;;5095925;28;20896;-51
2022/01/31 02:38:51;;;;;;;10.23;6.80;;;3.80;98.80;;;;;;5098008;28;20477;-50
2022/01/31 02:41:18;;;;;;;23.60;9.53;;;3.90;98.80;;;;;;5098665;28;20548;-49
2022/01/31 02:43:49;;;;;;;22.03;7.70;;;3.80;98.70;;;;;;5089311;28;20482;-54
2022/01/31 02:46:16;;;;;;;22.17;7.70;;;3.80;98.70;;;;;;5090110;28;20491;-50
2022/01/31 02:48:43;;;;;;;14.70;7.10;;;3.90;98.80;;;;;;5096451;28;20515;-50
2022/01/31 02:51:10;;;;;;;17.33;4.80;;;4.00;98.60;;;;;;5100706;28;20485;-49
2022/01/31 02:53:41;;;;;;;10.77;4.80;;;4.10;98.50;;;;;;5096810;28;20984;-49
2022/01/31 02:56:09;;;;;;;16.67;5.63;;;4.20;98.30;;;;;;5099340;28;20481;-49
2022/01/31 02:58:36;;;;;;;12.73;5.20;;;4.20;98.40;;;;;;5080821;28;20875;-50
2022/01/31 03:01:03;;;;;;;12.27;5.90;;;4.30;98.40;;;;;;5075813;28;20567;-49
2022/01/31 03:03:30;;;;;;;23.63;8.13;;;4.30;98.10;;;;;;5097857;28;20488;-50
2022/01/31 03:05:57;;;;;;;8.10;5.10;;;4.30;98.20;;;;;;5098222;28;20482;-51
2022/01/31 03:08:24;;;;;;;12.00;5.10;;;4.30;98.30;;;;;;5096429;28;20478;-50
2022/01/31 03:10:51;;;;;;;13.17;3.93;;;4.30;98.20;;;;;;5100097;28;21007;-51
2022/01/31 03:13:19;;;;;;;18.67;8.83;;;4.30;98.10;;;;;;5100581;28;20493;-51
2022/01/31 03:15:46;;;;;;;5.97;2.70;;;4.30;98.10;;;;;;5096870;28;20534;-49
2022/01/31 03:18:13;;;;;;;5.60;4.13;;;4.40;98.10;;;;;;5074586;28;20490;-50
2022/01/31 03:20:40;;;;;;;9.70;5.80;;;4.50;98.00;;;;;;5086180;28;20489;-50
2022/01/31 03:23:06;;;;;;;21.87;6.10;;;4.50;97.90;;;;;;5090214;28;20928;-51
2022/01/31 03:25:33;;;;;;;22.80;6.50;;;4.70;98.10;;;;;;5096052;28;20486;-50
2022/01/31 03:28:00;;;;;;;10.17;6.10;;;4.70;98.00;;;;;;5091223;28;20495;-49
2022/01/31 03:30:29;;;;;;;10.37;6.20;;;4.70;97.90;;;;;;5066221;28;20490;-50
2022/01/31 03:32:56;;;;;;;17.00;7.57;;;4.70;98.00;;;;;;5083965;28;20498;-50
2022/01/31 03:35:23;;;;;;;11.70;3.93;;;4.80;98.10;;;;;;5071901;28;20945;-50
2022/01/31 03:37:50;;;;;;;9.40;4.97;;;4.80;98.10;;;;;;5066297;28;20473;-51
2022/01/31 03:40:17;;;;;;;18.40;7.60;;;4.80;98.00;;;;;;5080969;28;20879;-50
2022/01/31 03:42:43;;;;;;;15.83;5.30;;;4.70;97.90;;;;;;5083847;28;20484;-50
2022/01/31 03:45:11;;;;;;;8.03;5.60;;;4.80;97.90;;;;;;5080301;28;20808;-50
2022/01/31 03:47:44;;;;;;;8.20;3.77;;;4.80;98.00;;;;;;5079630;28;20577;-51
2022/01/31 03:50:12;;;;;;;17.77;7.13;;;4.70;98.10;;;;;;5082968;28;20478;-51
2022/01/31 03:52:39;;;;;;;11.97;5.70;;;4.70;98.10;;;;;;5081538;28;20987;-50
2022/01/31 03:55:07;;;;;;;7.30;4.00;;;4.70;98.10;;;;;;5082237;28;20562;-51
2022/01/31 03:57:34;;;;;;;15.07;5.80;;;4.70;98.10;;;;;;5064909;28;20480;-51
2022/01/31 04:00:01;;;;;;;13.87;6.23;;;4.60;98.10;;;;;;5080021;28;20483;-50
2022/01/31 04:02:28;;;;;;;6.10;2.60;;;4.60;98.20;;;;;;5067062;28;20888;-51
2022/01/31 04:04:56;;;;;;;11.87;6.97;;;4.60;98.30;;;;;;5070197;28;20479;-51
2022/01/31 04:07:23;;;;;;;24.30;8.37;;;4.60;98.40;;;;;;5081755;28;20540;-52
2022/01/31 04:09:50;;;;;;;15.67;5.60;;;4.60;98.40;;;;;;5081455;28;20989;-51
2022/01/31 04:12:17;;;;;;;16.50;8.80;;;4.70;98.40;;;;;;5081299;28;20516;-49
2022/01/31 04:14:43;;;;;;;14.07;6.07;;;4.70;98.60;;;;;;5080461;28;20474;-50
2022/01/31 04:17:11;;;;;;;20.33;5.63;;;4.80;98.70;;;;;;5078595;28;20486;-50
2022/01/31 04:19:39;;;;;;;13.63;7.13;;;4.70;98.70;;;;;;5065421;28;21007;-50
2022/01/31 04:22:11;;;;;;;14.93;6.97;;;4.70;98.70;;;;;;5083028;28;20553;-51
2022/01/31 04:24:40;;;;;;;23.30;5.90;;;4.80;98.80;;;;;;5081028;28;20478;-52
2022/01/31 04:27:07;;;;;;;17.53;6.20;;;4.70;98.80;;;;;;5080631;28;20506;-51
2022/01/31 04:29:37;;;;;;;7.73;4.10;;;4.80;98.70;;;;;;5079685;28;20476;-50
2022/01/31 04:32:05;;;;;;;8.87;2.77;;;4.90;98.60;;;;;;5080639;28;20486;-50
2022/01/31 04:34:32;;;;;;;18.03;4.47;;;4.90;98.70;;;;;;5080035;28;20484;-52
2022/01/31 04:36:59;;;;;;;20.63;6.53;;;4.90;98.80;;;;;;5079262;28;20544;-51
2022/01/31 04:39:29;;;;;;;12.23;6.80;;;4.90;98.70;;;;;;5069530;28;20487;-50
2022/01/31 04:41:56;;;;;;;14.97;6.10;;;4.90;98.70;;;;;;5077975;28;20473;-49
2022/01/31 04:44:23;;;;;;;11.87;4.33;;;4.90;98.70;;;;;;5079639;28;21096;-52
2022/01/31 04:46:52;;;;;;;11.07;4.60;;;4.90;98.60;;;;;;5083831;28;20497;-48
2022/01/31 04:49:20;;;;;;;20.03;5.37;;;4.90;98.80;;;;;;5075565;28;20479;-50
2022/01/31 04:51:46;;;;;;;16.60;4.83;;;5.00;99.00;;;;;;5083939;28;20493;-49
2022/01/31 04:54:14;;;;;;;10.13;4.93;;;5.00;99.00;;;;;;5080659;28;20513;-51
2022/01/31 04:56:43;;;;;;;12.90;5.90;;;5.00;99.30;;;;;;5080163;28;21075;-49
2022/01/31 04:59:10;;;;;;;16.33;6.80;;;5.00;99.30;;;;;;5063695;28;20559;-48
2022/01/31 05:01:39;;;;;;;14.97;4.37;;;5.00;99.60;;;;;;5060900;28;20978;-50
2022/01/31 05:04:06;;;;;;;12.07;3.97;;;5.00;99.60;;;;;;5058896;28;21051;-50
2022/01/31 05:06:36;;;;;;;12.13;4.80;;;5.00;99.70;;;;;;5066567;28;20536;-51
2022/01/31 05:09:04;;;;;;;9.53;3.80;;;5.00;99.90;;;;;;5066891;28;20489;-50
2022/01/31 05:11:31;;;;;;;4.43;2.77;;;5.10;99.90;;;;;;5069509;28;20590;-50
2022/01/31 05:13:59;;;;;;;7.43;3.40;;;5.00;99.90;;;;;;5079858;28;20480;-50
2022/01/31 05:16:26;;;;;;;8.23;3.70;;;5.10;99.90;;;;;;5085834;28;20856;-50
2022/01/31 05:18:52;;;;;;;5.97;3.00;;;5.00;99.90;;;;;;5082003;28;20552;-51
2022/01/31 05:21:19;;;;;;;8.07;3.87;;;5.00;99.90;;;;;;5080254;28;20478;-50
2022/01/31 05:23:47;;;;;;;12.90;3.80;;;5.00;99.90;;;;;;5074662;28;20471;-49
2022/01/31 05:26:14;;;;;;;8.63;4.60;;;5.10;99.90;;;;;;5073813;28;20483;-50
2022/01/31 05:28:40;;;;;;;6.93;5.03;;;4.90;99.90;;;;;;5080306;28;20504;-49
2022/01/31 05:31:08;;;;;;;17.10;5.70;;;4.90;99.90;;;;;;5082007;28;20531;-48
2022/01/31 05:33:35;;;;;;;11.40;3.87;;;4.90;99.90;;;;;;5087124;28;20482;-50
2022/01/31 05:36:02;;;;;;;19.70;5.60;;;4.90;99.90;;;;;;5083442;28;20475;-51
2022/01/31 05:38:33;;;;;;;10.43;4.60;;;4.90;99.90;;;;;;5085193;28;20525;-50
2022/01/31 05:41:04;;;;;;;13.23;6.23;;;4.80;99.90;;;;;;5084258;28;21063;-51
2022/01/31 05:43:31;;;;;;;4.30;2.80;;;4.80;99.90;;;;;;5086609;28;21013;-50
2022/01/31 05:45:57;;;;;;;14.70;6.23;;;4.80;99.90;;;;;;5082690;28;20528;-52
2022/01/31 05:48:26;;;;;;;16.90;4.50;;;4.90;99.90;;;;;;5082467;28;20537;-54
2022/01/31 05:50:53;;;;;;;13.53;6.90;;;4.80;99.90;;;;;;5081624;28;20474;-48
2022/01/31 05:53:20;;;;;;;15.30;5.30;;;4.80;99.90;;;;;;5068865;28;20473;-50
2022/01/31 05:55:47;;;;;;;6.67;3.60;;;4.90;99.90;;;;;;5081100;28;20483;-50
2022/01/31 05:58:14;;;;;;;3.17;2.70;;;5.00;99.90;;;;;;5081871;28;20476;-50
2022/01/31 06:00:40;;;;;;;4.23;2.10;;;5.00;99.90;;;;;;5075494;28;20487;-51
2022/01/31 06:03:07;;;;;;;13.17;3.60;;;5.10;99.90;;;;;;5061985;28;20481;-50
2022/01/31 06:05:35;;;;;;;9.37;3.37;;;5.10;99.90;;;;;;5069512;28;20552;-50
2022/01/31 06:08:02;;;;;;;7.30;3.97;;;5.10;99.90;;;;;;5085244;28;20492;-52
2022/01/31 06:10:28;;;;;;;5.50;2.70;;;5.10;99.90;;;;;;5082535;28;20880;-49
2022/01/31 06:12:56;;;;;;;3.23;2.93;;;5.00;99.90;;;;;;5083044;28;20497;-48
2022/01/31 06:15:23;;;;;;;14.30;4.07;;;5.00;99.90;;;;;;5075800;28;20568;-50
2022/01/31 06:17:50;;;;;;;8.30;2.57;;;5.00;99.90;;;;;;5078935;28;20477;-48
2022/01/31 06:20:16;;;;;;;7.33;2.97;;;5.00;99.90;;;;;;5066260;28;20483;-48
2022/01/31 06:22:50;;;;;;;9.03;2.80;;;5.00;99.90;;;;;;5061592;28;20555;-50
2022/01/31 06:25:17;;;;;;;11.53;3.50;;;5.00;99.90;;;;;;5059901;28;20594;-47
2022/01/31 06:27:44;;;;;;;5.10;2.63;;;5.10;99.90;;;;;;5063782;28;20477;-49
2022/01/31 06:30:11;;;;;;;3.47;2.63;;;5.10;99.90;;;;;;5067240;28;20487;-48
2022/01/31 06:32:38;;;;;;;3.70;2.17;;;4.90;99.90;;;;;;5063844;28;20479;-47
2022/01/31 06:35:07;;;;;;;4.50;3.10;;;5.10;99.90;;;;;;5061684;28;20491;-48
2022/01/31 06:37:34;;;;;;;4.17;3.10;;;5.10;99.90;;;;;;5064946;28;20483;-48
2022/01/31 06:40:03;;;;;;;6.33;2.30;;;5.10;99.90;;;;;;5060322;28;20471;-51
2022/01/31 06:42:30;;;;;;;5.23;2.70;;;5.20;99.90;;;;;;5062000;28;20591;-50
2022/01/31 06:44:57;;;;;;;4.27;2.90;;;;;;;;;;5065776;28;20503;-50
2022/01/31 06:47:24;;;;;;;3.60;1.80;;;5.10;99.90;;;;;;5063077;28;20468;-49
2022/01/31 06:49:51;;;;;;;3.23;2.43;;;5.10;99.90;;;;;;5063864;28;20905;-49
2022/01/31 06:52:18;;;;;;;2.53;2.33;;;;;;;;;;5061336;28;20501;-49
2022/01/31 06:54:49;;;;;;;3.53;2.20;;;5.20;99.90;;;;;;5062758;28;20496;-47
2022/01/31 06:57:18;;;;;;;3.37;2.40;;;5.20;99.90;;;;;;5062899;28;20539;-49
2022/01/31 06:59:44;;;;;;;6.77;2.30;;;5.10;99.90;;;;;;5062341;28;20487;-48
2022/01/31 07:02:11;;;;;;;9.13;2.30;;;5.20;99.90;;;;;;5066254;28;20902;-48
2022/01/31 07:04:38;;;;;;;2.97;2.10;;;5.20;99.90;;;;;;5065397;28;20545;-50
2022/01/31 07:07:05;;;;;;;3.97;2.30;;;5.20;99.90;;;;;;5072911;28;20896;-51
2022/01/31 07:09:33;;;;;;;4.40;2.83;;;5.20;99.90;;;;;;5073908;28;20488;-52
2022/01/31 07:12:02;;;;;;;4.80;2.77;;;5.30;99.90;;;;;;5076786;28;20978;-48
2022/01/31 07:14:33;;;;;;;3.87;2.50;;;5.40;99.90;;;;;;5066821;28;20475;-49
2022/01/31 07:17:01;;;;;;;2.90;2.30;;;5.30;99.90;;;;;;5069066;28;20970;-49
2022/01/31 07:19:31;;;;;;;3.03;1.40;;;5.40;99.90;;;;;;5062147;28;20574;-49
2022/01/31 07:21:58;;;;;;;5.37;1.60;;;5.40;99.90;;;;;;5059624;28;20938;-49
2022/01/31 07:24:31;;;;;;;4.57;2.50;;;5.50;99.90;;;;;;5068736;28;20481;-51
2022/01/31 07:26:57;;;;;;;2.83;1.30;;;5.40;99.90;;;;;;5062418;28;20476;-48
2022/01/31 07:29:24;;;;;;;2.83;1.77;;;5.40;99.90;;;;;;5070937;28;20475;-53
2022/01/31 07:31:52;;;;;;;3.40;1.70;;;5.50;99.90;;;;;;5051002;28;20535;-49
2022/01/31 07:34:20;;;;;;;7.00;1.90;;;5.50;99.90;;;;;;5056887;28;20495;-50
2022/01/31 07:36:48;;;;;;;10.63;2.30;;;5.50;99.90;;;;;;5063682;28;20524;-49
2022/01/31 07:39:15;;;;;;;2.77;1.90;;;5.60;99.90;;;;;;5059472;28;20479;-50
2022/01/31 07:41:43;;;;;;;6.13;2.40;;;5.60;99.90;;;;;;5072892;28;20976;-49
2022/01/31 07:44:11;;;;;;;2.37;2.17;;;5.50;99.90;;;;;;5072383;28;20480;-50
2022/01/31 07:46:38;;;;;;;6.90;2.30;;;5.60;99.90;;;;;;5074455;28;20990;-49
2022/01/31 07:49:07;;;;;;;4.70;1.53;;;5.60;99.90;;;;;;5072494;28;20483;-50
2022/01/31 07:51:36;;;;;;;2.13;1.47;;;5.60;99.90;;;;;;5072949;28;21400;-50
2022/01/31 07:54:03;;;;;;;6.83;3.20;;;5.70;99.90;;;;;;5071262;28;21320;-49
2022/01/31 07:56:29;;;;;;;2.90;2.33;;;5.70;99.90;;;;;;5078357;28;20531;-49
2022/01/31 07:58:56;;;;;;;2.03;1.83;;;5.70;99.90;;;;;;5071378;28;20472;-49
2022/01/31 08:01:26;;;;;;;12.93;2.23;;;5.70;99.90;;;;;;5077926;28;20491;-49
2022/01/31 08:03:53;;;;;;;7.00;2.10;;;5.70;99.90;;;;;;5081144;28;21060;-50
2022/01/31 08:06:21;;;;;;;2.27;2.07;;;5.80;99.90;;;;;;5073045;28;20492;-49
2022/01/31 08:08:49;;;;;;;4.27;2.10;;;5.80;99.90;;;;;;5074933;28;20485;-50
2022/01/31 08:11:16;;;;;;;4.73;2.57;;;5.90;99.90;;;;;;5068667;28;20487;-49
2022/01/31 08:13:43;;;;;;;2.77;1.40;;;5.90;99.90;;;;;;5080622;28;20490;-49
2022/01/31 08:16:13;;;;;;;4.53;3.80;;;6.00;99.90;;;;;;5075494;28;20978;-49
2022/01/31 08:18:42;;;;;;;6.07;2.40;;;6.00;99.90;;;;;;5071738;28;20578;-48
2022/01/31 08:21:11;;;;;;;10.13;3.43;;;6.00;99.90;;;;;;5056086;28;21086;-51
2022/01/31 08:23:40;;;;;;;6.57;3.00;;;6.10;99.90;;;;;;5052932;28;20553;-49
2022/01/31 08:26:11;;;;;;;2.50;2.30;;;6.10;99.90;;;;;;5078160;28;20472;-49
2022/01/31 08:28:41;;;;;;;6.90;3.40;;;6.10;99.90;;;;;;5071038;28;20492;-50
2022/01/31 08:31:13;;;;;;;4.37;1.90;;;6.10;99.90;;;;;;5083224;28;20586;-50
2022/01/31 08:33:45;;;;;;;2.70;1.60;;;6.10;99.90;;;;;;5068515;28;20490;-50
2022/01/31 08:36:13;;;;;;;2.10;1.77;;;6.10;99.90;;;;;;5054546;28;20997;-50
2022/01/31 08:38:43;;;;;;;6.60;2.87;;;6.10;99.90;;;;;;5069692;28;20869;-50
2022/01/31 08:41:11;;;;;;;4.47;2.57;;;6.20;99.90;;;;;;5071973;28;20488;-49
2022/01/31 08:43:40;;;;;;;6.73;2.80;;;6.30;99.90;;;;;;5078504;28;20475;-51
2022/01/31 08:46:08;;;;;;;3.70;2.57;;;6.40;99.90;;;;;;5074625;28;20535;-51
2022/01/31 08:48:35;;;;;;;5.33;3.40;;;6.50;99.90;;;;;;5039360;28;20555;-50
2022/01/31 08:51:03;;;;;;;3.90;2.23;;;6.60;99.90;;;;;;5059871;28;20484;-52
2022/01/31 08:53:32;;;;;;;4.00;3.57;;;6.60;99.90;;;;;;5059518;28;20546;-50
2022/01/31 08:56:04;;;;;;;4.40;2.37;;;6.60;99.90;;;;;;5060953;28;20499;-50
2022/01/31 08:58:31;;;;;;;9.63;2.87;;;6.60;99.90;;;;;;5059312;28;20862;-50
2022/01/31 09:01:03;;;;;;;6.57;3.47;;;6.60;99.90;;;;;;5058653;28;20489;-49
2022/01/31 09:03:42;;;;;;;3.50;2.40;;;6.70;99.90;;;;;;5060427;28;20482;-52
2022/01/31 09:06:11;;;;;;;4.10;2.60;;;6.80;99.90;;;;;;5080558;28;20474;-58
2022/01/31 09:08:38;;;;;;;4.20;2.67;;;6.80;99.80;;;;;;5058715;28;20470;-50
2022/01/31 09:11:08;;;;;;;11.03;2.17;;;6.80;99.60;;;;;;5079826;28;20545;-49
2022/01/31 09:13:36;;;;;;;4.37;2.47;;;6.80;99.50;;;;;;5076609;28;20892;-49
2022/01/31 09:16:04;;;;;;;6.60;2.83;;;6.80;99.80;;;;;;5077621;28;20467;-49
2022/01/31 09:18:31;;;;;;;5.10;1.80;;;6.80;99.40;;;;;;5078251;28;20466;-49
2022/01/31 09:20:58;;;;;;;4.50;2.20;;;6.80;99.20;;;;;;5080665;28;20836;-49
2022/01/31 09:23:25;;;;;;;2.80;1.90;;;6.90;99.40;;;;;;5083203;28;20577;-50
2022/01/31 09:25:53;;;;;;;5.73;2.60;;;7.00;99.30;;;;;;5073399;28;21035;-51
2022/01/31 09:28:21;;;;;;;4.53;2.60;;;7.00;99.00;;;;;;5068579;28;20473;-47
2022/01/31 09:30:48;;;;;;;5.97;2.70;;;7.00;98.70;;;;;;5081035;28;20515;-50
2022/01/31 09:33:16;;;;;;;11.03;2.00;;;7.00;98.80;;;;;;5083211;28;20489;-48
2022/01/31 09:35:44;;;;;;;8.17;2.30;;;7.10;98.90;;;;;;5078761;28;20470;-51
2022/01/31 09:38:12;;;;;;;6.63;2.20;;;7.00;98.50;;;;;;5075858;28;20490;-51
2022/01/31 09:40:40;;;;;;;2.53;1.40;;;7.00;98.20;;;;;;5047212;28;21126;-51
2022/01/31 09:43:28;;;;;;;3.07;1.30;;;7.00;98.20;;;;;;5048412;28;20485;-49
2022/01/31 09:46:04;;;;;;;7.20;1.80;;;6.90;98.10;;;;;;5063588;28;20476;-51
2022/01/31 09:48:33;;;;;;;5.70;1.30;;;7.00;98.10;;;;;;5065913;28;20482;-53
2022/01/31 09:51:02;;;;;;;4.73;1.30;;;6.90;98.00;;;;;;5064279;28;20592;-50
2022/01/31 09:53:30;;;;;;;3.70;1.87;;;6.80;97.50;;;;;;5062684;28;20485;-50
2022/01/31 09:55:57;;;;;;;1.90;1.60;;;6.90;97.30;;;;;;5053786;28;20477;-50
2022/01/31 09:58:29;;;;;;;10.93;3.30;;;7.00;97.80;;;;;;5066001;28;21088;-50
2022/01/31 10:01:11;;;;;;;3.80;1.70;;;7.00;97.60;;;;;;5063372;28;20561;-49
2022/01/31 10:03:48;;;;;;;7.33;2.10;;;7.00;97.40;;;;;;5063844;28;20471;-51
2022/01/31 10:06:23;;;;;;;2.30;1.70;;;7.00;97.30;;;;;;5059825;28;20488;-50
2022/01/31 10:09:05;;;;;;;8.90;1.73;;;7.00;97.10;;;;;;5076144;28;20495;-50
2022/01/31 10:11:47;;;;;;;5.47;1.77;;;7.00;97.00;;;;;;5068677;28;21063;-49
2022/01/31 10:17:06;;;;;;;4.33;2.70;;;7.00;97.10;;;;;;5062794;28;20489;-49
2022/01/31 10:19:40;;;;;;;1.97;1.23;;;7.00;97.10;;;;;;5062814;28;21416;-50
2022/01/31 10:22:08;;;;;;;7.13;3.07;;;7.00;97.20;;;;;;5060612;28;20700;-50
2022/01/31 10:24:38;;;;;;;4.27;1.27;;;7.10;97.00;;;;;;5060621;28;20480;-49
2022/01/31 10:27:10;;;;;;;2.63;1.90;;;7.10;96.70;;;;;;5062439;28;20941;-49
2022/01/31 10:29:37;;;;;;;4.40;1.90;;;7.10;96.50;;;;;;5059224;28;20495;-50
2022/01/31 10:32:09;;;;;;;17.50;6.43;;;7.20;96.60;;;;;;5065618;28;20489;-49
2022/01/31 10:34:45;;;;;;;4.33;1.67;;;7.20;96.40;;;;;;5060962;28;20481;-50
2022/01/31 10:37:15;;;;;;;7.43;2.20;;;7.20;96.10;;;;;;5066568;28;20480;-49
2022/01/31 10:45:47;;;;;;;3.27;2.17;;;7.30;96.40;;;;;;5063332;28;20487;-50
2022/01/31 10:54:25;;;;;;;6.90;2.20;;;7.50;95.80;;;;;;5009276;28;20501;-49
2022/01/31 10:56:54;;;;;;;5.97;1.27;;;7.50;95.90;;;;;;5031849;28;20481;-51
2022/01/31 10:59:24;;;;;;;4.17;1.20;;;7.50;95.40;;;;;;5062759;28;20971;-49
2022/01/31 11:01:52;;;;;;;6.43;1.90;;;7.50;95.20;;;;;;5074881;28;20494;-49
2022/01/31 11:04:20;;;;;;;4.33;1.77;;;7.50;95.40;;;;;;5080506;28;20830;-50
2022/01/31 11:06:50;;;;;;;5.10;1.73;;;7.60;95.50;;;;;;5072171;28;20476;-49
2022/01/31 11:09:18;;;;;;;4.77;1.70;;;7.50;95.00;;;;;;5055632;28;20477;-52
2022/01/31 11:11:47;;;;;;;14.47;1.80;;;7.60;94.90;;;;;;5082488;28;20965;-48
2022/01/31 11:14:15;;;;;;;3.67;1.77;;;7.50;94.50;;;;;;5050247;28;20479;-48
2022/01/31 11:16:44;;;;;;;6.20;2.07;;;7.60;94.90;;;;;;5075249;28;20524;-48
2022/01/31 11:19:15;;;;;;;8.53;1.83;;;7.60;95.00;;;;;;5080367;28;20542;-48
2022/01/31 11:21:46;;;;;;;4.40;2.20;;;7.60;95.00;;;;;;5085632;28;20902;-48
2022/01/31 11:24:20;;;;;;;2.43;1.30;;;7.60;95.30;;;;;;5084329;28;20486;-48
2022/01/31 11:26:49;;;;;;;3.40;1.63;;;7.50;95.00;;;;;;5053896;28;20965;-48
2022/01/31 11:29:17;;;;;;;7.03;2.23;;;7.50;95.10;;;;;;5078783;28;20547;-49
2022/01/31 11:31:45;;;;;;;3.87;1.90;;;7.50;95.30;;;;;;5083125;28;20484;-48
2022/01/31 11:34:12;;;;;;;1.63;1.23;;;7.50;95.20;;;;;;5084297;28;20493;-50
2022/01/31 11:36:41;;;;;;;6.77;1.63;;;7.50;95.20;;;;;;5078469;28;20551;-51
2022/01/31 11:39:11;;;;;;;11.77;2.60;;;7.60;95.00;;;;;;5085145;28;20488;-49
2022/01/31 11:41:44;;;;;;;3.97;2.40;;;7.60;95.30;;;;;;5081286;28;20477;-48
2022/01/31 11:44:18;;;;;;;8.50;2.00;;;7.70;95.00;;;;;;5081473;28;20486;-50
2022/01/31 11:46:45;;;;;;;7.23;2.07;;;7.70;94.80;;;;;;5080628;28;20890;-49
2022/01/31 11:49:14;;;;;;;9.30;3.83;;;7.70;94.90;;;;;;5073441;28;20621;-49
2022/01/31 11:52:06;;;;;;;9.53;5.70;;;7.80;94.90;;;;;;5084662;28;20491;-50
2022/01/31 11:54:37;;;;;;;1.93;1.63;;;7.80;94.70;;;;;;5060370;28;21202;-49
2022/01/31 11:57:13;;;;;;;9.60;2.70;;;7.80;94.70;;;;;;5061201;28;20537;-49
2022/01/31 11:59:41;;;;;;;5.20;2.23;;;7.70;94.60;;;;;;5061687;28;20488;-49
2022/01/31 12:02:08;;;;;;;3.23;1.70;;;7.60;94.90;;;;;;5061547;28;20540;-53
2022/01/31 12:04:35;;;;;;;4.13;1.17;;;7.70;94.90;;;;;;5059979;28;20547;-49
2022/01/31 12:07:40;;;;;;;3.80;2.20;;;7.60;95.00;;;;;;5062599;28;20914;-49
2022/01/31 12:10:11;;;;;;;2.47;1.67;;;7.50;95.50;;;;;;5066194;28;20479;-50
2022/01/31 12:12:51;;;;;;;3.97;1.83;;;7.50;95.30;;;;;;5063736;28;20491;-50
2022/01/31 12:15:46;;;;;;;5.97;1.83;;;7.50;95.80;;;;;;5070238;28;20553;-51
2022/01/31 12:24:28;;;;;;;2.63;1.60;;;7.30;95.60;;;;;;5067922;28;20546;-53
2022/01/31 12:26:59;;;;;;;8.97;2.53;;;7.40;95.80;;;;;;5068681;28;21008;-51
2022/01/31 12:29:28;;;;;;;6.23;2.10;;;7.40;95.70;;;;;;5050005;28;20482;-50
2022/01/31 12:31:57;;;;;;;8.03;2.20;;;7.40;95.40;;;;;;5060364;28;20883;-54
2022/01/31 12:34:42;;;;;;;3.73;1.30;;;7.40;95.30;;;;;;5057694;28;20559;-52
2022/01/31 12:37:25;;;;;;;3.00;1.70;;;7.40;95.50;;;;;;5055999;28;20654;-50
2022/01/31 12:40:15;;;;;;;8.17;2.10;;;7.30;95.10;;;;;;5073766;28;20489;-49
2022/01/31 12:43:08;;;;;;;3.40;1.83;;;7.30;95.20;;;;;;5076606;28;20467;-51
2022/01/31 12:46:14;;;;;;;8.30;1.63;;;7.40;95.40;;;;;;5067204;28;20844;-50
2022/01/31 12:48:42;;;;;;;7.10;3.10;;;7.40;95.20;;;;;;5080698;28;20474;-50
2022/01/31 12:51:18;;;;;;;10.73;2.07;;;7.40;94.80;;;;;;5077816;28;20482;-50
2022/01/31 12:53:48;;;;;;;5.47;1.47;;;7.50;95.10;;;;;;5073512;28;20472;-49
2022/01/31 12:56:29;;;;;;;10.27;1.97;;;7.40;94.30;;;;;;5074117;28;20482;-51
2022/01/31 12:59:11;;;;;;;7.30;2.00;;;7.40;94.20;;;;;;5049313;28;20476;-51
2022/01/31 13:01:40;;;;;;;4.27;1.50;;;7.40;94.50;;;;;;5071401;28;20989;-49
2022/01/31 13:04:09;;;;;;;8.40;2.23;;;7.40;94.10;;;;;;5082709;28;20480;-49
2022/01/31 13:06:38;;;;;;;7.27;2.90;;;7.50;94.30;;;;;;5072662;28;20543;-51
2022/01/31 13:09:19;;;;;;;8.43;2.00;;;7.50;94.20;;;;;;5080595;28;21017;-49
2022/01/31 13:11:48;;;;;;;10.53;2.67;;;7.50;94.00;;;;;;5082758;28;21037;-49
2022/01/31 13:14:19;;;;;;;6.60;1.43;;;7.50;93.60;;;;;;5084541;28;20488;-49
2022/01/31 13:16:59;;;;;;;18.73;3.20;;;7.60;93.80;;;;;;5080527;28;20480;-49
2022/01/31 13:19:31;;;;;;;4.93;1.40;;;7.60;93.60;;;;;;5082928;28;20485;-51
2022/01/31 13:22:00;;;;;;;7.03;1.50;;;7.60;93.30;;;;;;5056491;28;20476;-53
2022/01/31 13:24:48;;;;;;;2.93;2.20;;;7.70;93.60;;;;;;5082617;28;20478;-50